createdAt,value
2018-08-11T00:01:27.911Z,1.20
2018-08-11T00:03:31.119Z,1.03
2018-08-11T00:05:34.236Z,1.50
2018-08-11T00:07:37.381Z,2.03
2018-08-11T00:09:40.483Z,1.03
2018-08-11T00:11:43.607Z,0.90
2018-08-11T00:13:46.739Z,1.27
2018-08-11T00:15:49.871Z,1.43
2018-08-11T00:17:53.019Z,2.07
2018-08-11T00:19:56.131Z,1.23
2018-08-11T00:21:59.250Z,1.57
2018-08-11T00:24:02.391Z,1.00
2018-08-11T00:26:06.341Z,1.20
2018-08-11T00:28:09.463Z,1.37
2018-08-11T00:30:16.100Z,1.20
2018-08-11T00:32:19.214Z,1.23
2018-08-11T00:34:22.392Z,1.30
2018-08-11T00:36:25.564Z,1.13
2018-08-11T00:38:28.651Z,1.30
2018-08-11T00:40:31.778Z,1.93
2018-08-11T00:42:35.070Z,1.03
2018-08-11T00:44:38.198Z,1.83
2018-08-11T00:46:41.407Z,1.30
2018-08-11T00:48:44.575Z,1.37
2018-08-11T00:50:47.657Z,1.40
2018-08-11T00:52:50.756Z,1.80
2018-08-11T00:54:53.834Z,1.90
2018-08-11T00:56:56.927Z,1.60
2018-08-11T00:59:00.028Z,1.80
2018-08-11T01:01:03.139Z,2.30
2018-08-11T01:03:06.269Z,2.70
2018-08-11T01:05:12.250Z,2.50
2018-08-11T01:07:15.349Z,2.60
2018-08-11T01:09:18.434Z,2.50
2018-08-11T01:11:21.530Z,2.27
2018-08-11T01:13:24.615Z,2.13
2018-08-11T01:15:27.694Z,2.33
2018-08-11T01:17:30.880Z,2.67
2018-08-11T01:19:33.967Z,2.07
2018-08-11T01:21:37.068Z,1.97
2018-08-11T01:23:40.171Z,2.27
2018-08-11T01:25:43.274Z,2.30
2018-08-11T01:27:46.375Z,2.20
2018-08-11T01:29:49.564Z,1.10
2018-08-11T01:31:52.679Z,1.10
2018-08-11T01:33:55.767Z,1.20
2018-08-11T01:35:58.851Z,1.00
2018-08-11T01:38:01.988Z,0.97
2018-08-11T01:40:05.569Z,1.00
2018-08-11T01:42:08.828Z,0.90
2018-08-11T01:44:11.988Z,0.80
2018-08-11T01:46:15.072Z,0.80
2018-08-11T01:48:18.200Z,0.80
2018-08-11T01:50:21.336Z,0.90
2018-08-11T01:52:24.449Z,1.07
2018-08-11T01:54:27.727Z,0.90
2018-08-11T01:56:30.894Z,0.90
2018-08-11T01:58:34.003Z,0.87
2018-08-11T02:00:37.135Z,1.87
2018-08-11T02:02:40.689Z,1.20
2018-08-11T02:04:43.816Z,1.10
2018-08-11T02:06:46.927Z,1.00
2018-08-11T02:08:50.044Z,0.90
2018-08-11T02:10:53.169Z,1.20
2018-08-11T02:12:56.287Z,1.13
2018-08-11T02:14:59.422Z,1.40
2018-08-11T02:17:02.559Z,1.10
2018-08-11T02:19:05.682Z,1.17
2018-08-11T02:21:08.834Z,1.03
2018-08-11T02:23:12.061Z,0.97
2018-08-11T02:25:15.204Z,1.10
2018-08-11T02:27:18.323Z,0.90
2018-08-11T02:29:21.438Z,1.00
2018-08-11T02:31:24.564Z,1.07
2018-08-11T02:33:27.672Z,0.90
2018-08-11T02:35:30.792Z,1.00
2018-08-11T02:37:33.933Z,1.10
2018-08-11T02:39:36.874Z,1.00
2018-08-11T02:41:40.005Z,1.20
2018-08-11T02:43:43.099Z,1.10
2018-08-11T02:45:46.234Z,1.33
2018-08-11T02:47:49.355Z,1.10
2018-08-11T02:49:52.523Z,1.20
2018-08-11T02:51:55.641Z,1.00
2018-08-11T02:53:58.773Z,1.10
2018-08-11T02:56:01.904Z,1.10
2018-08-11T02:58:05.156Z,0.90
2018-08-11T03:00:10.120Z,0.90
2018-08-11T03:02:13.215Z,1.07
2018-08-11T03:04:16.352Z,0.90
2018-08-11T03:06:19.458Z,1.20
2018-08-11T03:08:22.615Z,1.53
2018-08-11T03:10:25.723Z,1.20
2018-08-11T03:12:28.859Z,1.30
2018-08-11T03:14:31.991Z,1.10
2018-08-11T03:16:35.105Z,1.73
2018-08-11T03:18:38.232Z,1.30
2018-08-11T03:20:41.356Z,1.30
2018-08-11T03:22:45.099Z,1.40
2018-08-11T03:24:48.232Z,2.20
2018-08-11T03:26:51.348Z,1.70
2018-08-11T03:28:54.467Z,1.77
2018-08-11T03:30:57.607Z,1.73
2018-08-11T03:33:00.711Z,2.30
2018-08-11T03:35:03.966Z,1.80
2018-08-11T03:37:07.079Z,2.80
2018-08-11T03:39:12.012Z,2.90
2018-08-11T03:41:15.120Z,3.70
2018-08-11T03:43:18.235Z,3.50
2018-08-11T03:45:21.349Z,3.60
2018-08-11T03:47:24.856Z,3.47
2018-08-11T03:49:27.952Z,4.50
2018-08-11T03:51:31.046Z,4.40
2018-08-11T03:53:34.143Z,5.10
2018-08-11T03:55:37.224Z,5.77
2018-08-11T03:57:40.310Z,5.07
2018-08-11T03:59:43.411Z,6.17
2018-08-11T04:01:46.522Z,6.67
2018-08-11T04:03:49.743Z,5.50
2018-08-11T04:05:52.824Z,6.00
2018-08-11T04:07:55.907Z,5.93
2018-08-11T04:09:59.301Z,7.20
2018-08-11T04:12:02.479Z,6.70
2018-08-11T04:14:05.563Z,8.30
2018-08-11T04:16:08.821Z,8.00
2018-08-11T04:18:11.908Z,8.97
2018-08-11T04:20:14.985Z,8.20
2018-08-11T04:22:18.097Z,9.30
2018-08-11T04:24:21.208Z,10.27
2018-08-11T04:26:24.311Z,9.83
2018-08-11T04:28:27.414Z,12.47
2018-08-11T04:30:30.517Z,10.40
2018-08-11T04:32:33.623Z,11.63
2018-08-11T04:34:36.740Z,12.70
2018-08-11T04:36:39.827Z,11.40
2018-08-11T04:38:42.927Z,11.43
2018-08-11T04:40:46.059Z,11.47
2018-08-11T04:42:49.160Z,10.57
2018-08-11T04:44:52.261Z,11.90
2018-08-11T04:46:55.383Z,11.67
2018-08-11T04:48:58.540Z,11.40
2018-08-11T04:51:01.655Z,10.97
2018-08-11T04:53:04.796Z,10.90
2018-08-11T04:55:07.936Z,9.30
2018-08-11T04:57:11.059Z,7.63
2018-08-11T04:59:14.180Z,8.80
2018-08-11T05:01:17.313Z,8.53
2018-08-11T05:03:20.431Z,9.40
2018-08-11T05:05:23.570Z,7.40
2018-08-11T05:07:26.708Z,7.50
2018-08-11T05:09:29.845Z,8.70
2018-08-11T05:11:32.977Z,8.20
2018-08-11T05:13:36.096Z,9.40
2018-08-11T05:15:39.226Z,7.67
2018-08-11T05:17:42.343Z,8.50
2018-08-11T05:19:45.473Z,10.10
2018-08-11T05:21:48.582Z,8.50
2018-08-11T05:23:51.699Z,8.90
2018-08-11T05:25:54.811Z,9.67
2018-08-11T05:27:57.950Z,10.80
2018-08-11T05:30:01.066Z,9.90
2018-08-11T05:32:04.200Z,9.93
2018-08-11T05:34:07.323Z,10.07
2018-08-11T05:36:10.471Z,10.17
2018-08-11T05:38:13.587Z,10.97
2018-08-11T05:40:16.829Z,10.57
2018-08-11T05:42:19.939Z,12.33
2018-08-11T05:44:23.041Z,11.43
2018-08-11T05:46:26.135Z,12.67
2018-08-11T05:48:29.270Z,11.20
2018-08-11T05:50:32.383Z,13.40
2018-08-11T05:52:35.585Z,12.23
2018-08-11T05:54:38.675Z,12.00
2018-08-11T05:56:41.775Z,10.93
2018-08-11T05:58:44.855Z,11.87
2018-08-11T06:00:48.235Z,12.47
2018-08-11T06:02:51.135Z,12.10
2018-08-11T06:04:54.247Z,12.47
2018-08-11T06:06:57.348Z,12.53
2018-08-11T06:09:00.450Z,11.17
2018-08-11T06:11:03.576Z,10.67
2018-08-11T06:13:06.456Z,10.03
2018-08-11T06:15:09.338Z,9.30
2018-08-11T06:17:12.439Z,10.00
2018-08-11T06:19:15.533Z,9.17
2018-08-11T06:21:18.647Z,8.17
2018-08-11T06:23:21.753Z,7.10
2018-08-11T06:25:24.735Z,6.60
2018-08-11T06:27:27.740Z,5.53
2018-08-11T06:29:30.683Z,5.97
2018-08-11T06:31:33.836Z,5.20
2018-08-11T06:33:36.875Z,5.80
2018-08-11T06:35:39.968Z,6.10
2018-08-11T06:37:43.051Z,6.87
2018-08-11T06:39:46.203Z,7.70
2018-08-11T06:41:49.315Z,9.80
2018-08-11T06:43:52.430Z,9.37
2018-08-11T06:45:55.633Z,9.33
2018-08-11T06:47:58.747Z,6.73
2018-08-11T06:50:01.867Z,6.47
2018-08-11T06:52:05.073Z,8.20
2018-08-11T06:54:08.219Z,8.23
2018-08-11T06:56:11.428Z,8.03
2018-08-11T06:58:14.581Z,9.37
2018-08-11T07:00:17.731Z,8.63
2018-08-11T07:02:20.897Z,8.13
2018-08-11T07:04:24.062Z,9.90
2018-08-11T07:06:27.219Z,9.10
2018-08-11T07:08:30.572Z,10.30
2018-08-11T07:10:33.745Z,8.33
2018-08-11T07:12:36.975Z,8.10
2018-08-11T07:14:40.198Z,9.60
2018-08-11T07:16:43.448Z,9.47
2018-08-11T07:18:46.593Z,9.87
2018-08-11T07:20:49.755Z,10.47
2018-08-11T07:22:52.884Z,10.30
2018-08-11T07:24:56.016Z,9.37
2018-08-11T07:26:59.216Z,9.40
2018-08-11T07:29:02.432Z,9.33
2018-08-11T07:31:05.719Z,10.33
2018-08-11T07:33:08.867Z,10.10
2018-08-11T07:35:12.368Z,9.60
2018-08-11T07:37:15.506Z,9.40
2018-08-11T07:39:18.632Z,9.37
2018-08-11T07:41:21.901Z,9.90
2018-08-11T07:43:25.325Z,8.40
2018-08-11T07:45:28.471Z,8.67
2018-08-11T07:47:31.917Z,8.07
2018-08-11T07:49:35.178Z,7.27
2018-08-11T07:51:38.351Z,7.87
2018-08-11T07:53:41.434Z,8.70
2018-08-11T07:55:44.662Z,7.83
2018-08-11T07:57:47.779Z,6.40
2018-08-11T07:59:50.903Z,6.27
2018-08-11T08:01:54.040Z,7.30
2018-08-11T08:03:57.223Z,6.40
2018-08-11T08:06:00.408Z,6.00
2018-08-11T08:08:03.576Z,5.90
2018-08-11T08:10:07.182Z,5.80
2018-08-11T08:12:10.303Z,5.47
2018-08-11T08:14:13.463Z,5.60
2018-08-11T08:16:16.715Z,4.73
2018-08-11T08:18:19.854Z,6.00
2018-08-11T08:20:23.093Z,6.00
2018-08-11T08:22:26.853Z,4.73
2018-08-11T08:24:29.930Z,5.63
2018-08-11T08:26:33.284Z,4.17
2018-08-11T08:28:36.223Z,4.47
2018-08-11T08:30:39.408Z,4.37
2018-08-11T08:32:42.709Z,4.03
2018-08-11T08:34:45.815Z,4.00
2018-08-11T08:36:48.947Z,4.30
2018-08-11T08:38:52.208Z,2.67
2018-08-11T08:40:55.446Z,3.07
2018-08-11T08:42:58.892Z,2.77
2018-08-11T08:45:02.115Z,2.80
2018-08-11T08:47:05.270Z,2.30
2018-08-11T08:49:08.757Z,2.90
2018-08-11T08:51:11.995Z,2.60
2018-08-11T08:53:15.121Z,2.87
2018-08-11T08:55:18.261Z,2.63
2018-08-11T08:57:21.500Z,2.57
2018-08-11T08:59:24.619Z,2.23
2018-08-11T09:01:27.762Z,1.90
2018-08-11T09:03:30.993Z,2.53
2018-08-11T09:05:34.080Z,2.53
2018-08-11T09:07:37.275Z,1.60
2018-08-11T09:09:40.396Z,2.17
2018-08-11T09:11:43.558Z,2.27
2018-08-11T09:13:46.674Z,1.93
2018-08-11T09:15:49.817Z,2.20
2018-08-11T09:17:52.928Z,2.87
2018-08-11T09:19:56.038Z,1.73
2018-08-11T09:21:59.148Z,1.57
2018-08-11T09:24:02.272Z,2.07
2018-08-11T09:26:05.784Z,1.40
2018-08-11T09:28:08.927Z,2.30
2018-08-11T09:30:12.043Z,1.50
2018-08-11T09:32:15.165Z,1.70
2018-08-11T09:34:18.275Z,1.50
2018-08-11T09:36:21.375Z,1.90
2018-08-11T09:38:24.517Z,1.60
2018-08-11T09:40:27.619Z,1.60
2018-08-11T09:42:30.743Z,1.57
2018-08-11T09:44:33.864Z,1.17
2018-08-11T09:46:36.988Z,2.13
2018-08-11T09:48:40.112Z,1.90
2018-08-11T09:50:43.218Z,1.17
2018-08-11T09:52:46.351Z,1.60
2018-08-11T09:54:49.464Z,1.43
2018-08-11T09:56:52.595Z,1.20
2018-08-11T09:58:55.735Z,1.40
2018-08-11T10:01:03.083Z,1.30
2018-08-11T10:03:06.207Z,1.90
2018-08-11T10:05:09.461Z,1.20
2018-08-11T10:07:12.716Z,1.70
2018-08-11T10:09:15.920Z,1.93
2018-08-11T10:11:19.043Z,1.60
2018-08-11T10:13:22.176Z,2.07
2018-08-11T10:15:25.291Z,1.57
2018-08-11T10:17:28.615Z,1.60
2018-08-11T10:19:31.748Z,1.20
2018-08-11T10:21:34.876Z,1.30
2018-08-11T10:23:38.228Z,1.10
2018-08-11T10:25:41.350Z,1.20
2018-08-11T10:27:44.477Z,1.10
2018-08-11T10:29:47.619Z,1.40
2018-08-11T10:31:50.872Z,1.10
2018-08-11T10:33:53.994Z,1.50
2018-08-11T10:35:57.133Z,2.03
2018-08-11T10:38:00.254Z,2.00
2018-08-11T10:40:03.425Z,1.80
2018-08-11T10:42:06.519Z,1.40
2018-08-11T10:44:10.701Z,1.27
2018-08-11T10:46:13.804Z,1.10
2018-08-11T10:48:16.908Z,1.90
2018-08-11T10:50:20.007Z,1.10
2018-08-11T10:52:23.097Z,1.40
2018-08-11T10:54:26.215Z,1.03
2018-08-11T10:56:29.330Z,1.30
2018-08-11T10:58:32.432Z,1.20
2018-08-11T11:00:35.544Z,1.10
2018-08-11T11:02:39.379Z,1.20
2018-08-11T11:04:42.484Z,1.10
2018-08-11T11:06:45.583Z,1.03
2018-08-11T11:08:48.688Z,0.90
2018-08-11T11:10:51.781Z,1.40
2018-08-11T11:12:54.870Z,1.13
2018-08-11T11:14:57.977Z,0.90
2018-08-11T11:17:01.062Z,1.43
2018-08-11T11:19:04.163Z,0.90
2018-08-11T11:21:07.551Z,1.17
2018-08-11T11:23:10.643Z,1.23
2018-08-11T11:25:13.539Z,1.10
2018-08-11T11:27:16.627Z,1.10
2018-08-11T11:29:19.712Z,1.23
2018-08-11T11:31:22.800Z,1.33
2018-08-11T11:33:25.903Z,1.20
2018-08-11T11:35:29.013Z,1.03
2018-08-11T11:37:32.090Z,1.30
2018-08-11T11:39:35.199Z,1.43
2018-08-11T11:41:39.024Z,1.20
2018-08-11T11:43:42.147Z,1.40
2018-08-11T11:45:45.032Z,1.30
2018-08-11T11:47:48.144Z,1.30
2018-08-11T11:49:51.088Z,1.30
2018-08-11T11:51:54.037Z,1.00
2018-08-11T11:53:57.152Z,1.40
2018-08-11T11:56:00.063Z,1.20
2018-08-11T11:58:03.179Z,1.77
2018-08-11T12:00:06.348Z,1.23
2018-08-11T12:02:09.553Z,1.53
2018-08-11T12:04:12.579Z,1.30
2018-08-11T12:06:15.696Z,1.47
2018-08-11T12:08:18.816Z,1.00
2018-08-11T12:10:21.952Z,1.50
2018-08-11T12:12:25.075Z,1.10
2018-08-11T12:14:28.207Z,1.00
2018-08-11T12:16:31.329Z,1.00
2018-08-11T12:18:34.444Z,1.40
2018-08-11T12:20:37.584Z,1.17
2018-08-11T12:22:40.839Z,1.50
2018-08-11T12:24:43.960Z,1.53
2018-08-11T12:26:47.071Z,1.30
2018-08-11T12:28:50.189Z,0.90
2018-08-11T12:30:54.269Z,1.10
2018-08-11T12:32:57.403Z,1.00
2018-08-11T12:35:00.516Z,1.00
2018-08-11T12:37:03.636Z,1.40
2018-08-11T12:39:08.566Z,1.33
2018-08-11T12:41:11.705Z,1.10
2018-08-11T12:43:14.828Z,1.27
2018-08-11T12:45:17.956Z,1.10
2018-08-11T12:47:21.063Z,1.10
2018-08-11T12:49:24.001Z,1.30
2018-08-11T12:51:26.975Z,1.10
2018-08-11T12:53:30.028Z,1.50
2018-08-11T12:55:32.994Z,1.27
2018-08-11T12:57:35.866Z,1.03
2018-08-11T12:59:38.757Z,1.50
2018-08-11T13:01:41.779Z,1.33
2018-08-11T13:03:44.650Z,1.20
2018-08-11T13:05:47.641Z,1.20
2018-08-11T13:07:50.619Z,1.43
2018-08-11T13:09:53.611Z,1.00
2018-08-11T13:11:56.586Z,1.23
2018-08-11T13:13:59.710Z,1.00
2018-08-11T13:16:02.830Z,1.00
2018-08-11T13:18:06.053Z,1.10
2018-08-11T13:20:09.437Z,1.00
2018-08-11T13:22:12.542Z,1.13
2018-08-11T13:24:15.671Z,1.20
2018-08-11T13:26:18.831Z,1.20
2018-08-11T13:28:21.955Z,1.40
2018-08-11T13:30:25.080Z,1.20
2018-08-11T13:32:28.195Z,1.20
2018-08-11T13:34:31.308Z,1.00
2018-08-11T13:36:34.436Z,0.90
2018-08-11T13:38:37.463Z,0.90
2018-08-11T13:40:40.298Z,0.90
2018-08-11T13:42:43.262Z,1.20
2018-08-11T13:44:46.380Z,1.07
2018-08-11T13:46:49.271Z,1.27
2018-08-11T13:48:52.212Z,1.40
2018-08-11T13:50:55.204Z,1.00
2018-08-11T13:52:58.317Z,1.13
2018-08-11T13:55:01.328Z,1.10
2018-08-11T13:57:04.139Z,0.80
2018-08-11T13:59:07.675Z,0.80
2018-08-11T14:01:10.796Z,1.00
2018-08-11T14:03:13.883Z,1.27
2018-08-11T14:05:17.711Z,2.20
2018-08-11T14:07:20.816Z,1.47
2018-08-11T14:09:23.908Z,0.80
2018-08-11T14:11:27.017Z,0.90
2018-08-11T14:13:29.896Z,0.97
2018-08-11T14:15:32.822Z,1.40
2018-08-11T14:17:36.248Z,0.83
2018-08-11T14:19:39.343Z,0.90
2018-08-11T14:21:42.458Z,0.97
2018-08-11T14:23:45.546Z,0.80
2018-08-11T14:25:48.682Z,1.00
2018-08-11T14:27:51.760Z,0.80
2018-08-11T14:29:54.866Z,0.80
2018-08-11T14:31:57.757Z,0.90
2018-08-11T14:34:00.861Z,0.90
2018-08-11T14:36:03.741Z,0.73
2018-08-11T14:38:06.623Z,0.93
2018-08-11T14:40:10.363Z,0.80
2018-08-11T14:42:13.515Z,0.80
2018-08-11T14:44:16.655Z,0.80
2018-08-11T14:46:19.814Z,1.13
2018-08-11T14:48:22.961Z,0.80
2018-08-11T14:50:26.116Z,0.70
2018-08-11T14:52:28.971Z,1.07
2018-08-11T14:54:31.862Z,0.83
2018-08-11T14:56:34.746Z,0.80
2018-08-11T14:58:37.735Z,0.80
2018-08-11T15:00:40.615Z,0.70
2018-08-11T15:02:43.575Z,0.80
2018-08-11T15:04:46.456Z,0.70
2018-08-11T15:06:49.430Z,0.80
2018-08-11T15:08:52.743Z,2.00
2018-08-11T15:10:55.695Z,0.80
2018-08-11T15:12:58.615Z,0.70
2018-08-11T15:15:01.588Z,0.70
2018-08-11T15:17:04.557Z,0.90
2018-08-11T15:19:07.435Z,0.70
2018-08-11T15:21:10.411Z,0.80
2018-08-11T15:23:13.393Z,0.90
2018-08-11T15:25:16.366Z,0.80
2018-08-11T15:27:19.251Z,0.60
2018-08-11T15:29:22.956Z,0.90
2018-08-11T15:31:25.943Z,1.03
2018-08-11T15:33:28.994Z,0.70
2018-08-11T15:35:31.898Z,0.90
2018-08-11T15:37:35.011Z,1.00
2018-08-11T15:39:37.930Z,0.80
2018-08-11T15:41:40.815Z,0.80
2018-08-11T15:43:43.856Z,0.87
2018-08-11T15:45:46.970Z,1.00
2018-08-11T15:47:50.119Z,0.80
2018-08-11T15:49:53.379Z,0.70
2018-08-11T15:51:56.508Z,1.20
2018-08-11T15:53:59.639Z,0.90
2018-08-11T15:56:02.543Z,1.10
2018-08-11T15:58:05.661Z,1.30
2018-08-11T16:00:08.627Z,1.03
2018-08-11T16:02:11.605Z,0.97
2018-08-11T16:04:14.571Z,0.80
2018-08-11T16:06:17.708Z,1.40
2018-08-11T16:08:20.839Z,1.00
2018-08-11T16:10:23.972Z,1.23
2018-08-11T16:12:27.107Z,0.80
2018-08-11T16:14:30.217Z,0.80
2018-08-11T16:16:33.416Z,0.70
2018-08-11T16:18:36.529Z,1.00
2018-08-11T16:20:39.648Z,0.80
2018-08-11T16:22:42.808Z,1.10
2018-08-11T16:24:46.024Z,0.70
2018-08-11T16:26:49.414Z,0.77
2018-08-11T16:28:52.546Z,0.80
2018-08-11T16:30:55.691Z,0.93
2018-08-11T16:32:58.806Z,0.80
2018-08-11T16:35:01.908Z,0.73
2018-08-11T16:37:05.127Z,0.93
2018-08-11T16:39:09.247Z,0.80
2018-08-11T16:41:12.406Z,0.70
2018-08-11T16:43:15.507Z,1.00
2018-08-11T16:45:18.670Z,0.87
2018-08-11T16:47:21.761Z,1.00
2018-08-11T16:49:24.882Z,1.20
2018-08-11T16:51:27.963Z,1.20
2018-08-11T16:53:31.055Z,1.10
2018-08-11T16:55:34.136Z,1.00
2018-08-11T16:57:37.228Z,1.10
2018-08-11T16:59:40.389Z,0.90
2018-08-11T17:01:43.436Z,0.73
2018-08-11T17:03:46.544Z,0.93
2018-08-11T17:05:49.691Z,0.90
2018-08-11T17:07:52.729Z,0.80
2018-08-11T17:09:55.914Z,1.00
2018-08-11T17:11:59.010Z,1.10
2018-08-11T17:14:02.120Z,1.60
2018-08-11T17:16:05.355Z,1.00
2018-08-11T17:18:08.466Z,1.10
2018-08-11T17:20:11.548Z,0.90
2018-08-11T17:22:14.639Z,1.10
2018-08-11T17:24:17.730Z,1.00
2018-08-11T17:26:20.816Z,1.10
2018-08-11T17:28:23.899Z,0.90
2018-08-11T17:30:26.998Z,0.97
2018-08-11T17:32:30.124Z,1.07
2018-08-11T17:34:33.152Z,1.13
2018-08-11T17:36:36.247Z,1.00
2018-08-11T17:38:39.344Z,1.00
2018-08-11T17:40:42.420Z,0.90
2018-08-11T17:42:45.559Z,1.30
2018-08-11T17:44:48.649Z,1.57
2018-08-11T17:46:51.759Z,1.53
2018-08-11T17:48:54.924Z,1.37
2018-08-11T17:50:57.980Z,0.93
2018-08-11T17:53:01.108Z,0.90
2018-08-11T17:55:04.379Z,1.20
2018-08-11T17:57:07.521Z,0.90
2018-08-11T17:59:10.651Z,1.07
2018-08-11T18:01:13.751Z,1.00
2018-08-11T18:03:16.871Z,1.10
2018-08-11T18:05:19.990Z,1.00
2018-08-11T18:07:23.188Z,0.93
2018-08-11T18:09:26.815Z,1.83
2018-08-11T18:11:30.197Z,0.90
2018-08-11T18:13:33.310Z,1.10
2018-08-11T18:15:36.431Z,0.80
2018-08-11T18:17:39.554Z,1.27
2018-08-11T18:19:42.669Z,0.90
2018-08-11T18:21:45.775Z,0.90
2018-08-11T18:23:48.904Z,0.80
2018-08-11T18:25:52.008Z,1.03
2018-08-11T18:27:55.176Z,0.90
2018-08-11T18:29:58.285Z,0.73
2018-08-11T18:32:01.395Z,1.20
2018-08-11T18:34:04.504Z,1.10
2018-08-11T18:36:07.615Z,1.30
2018-08-11T18:38:10.926Z,1.27
2018-08-11T18:40:14.044Z,1.10
2018-08-11T18:42:17.157Z,1.47
2018-08-11T18:44:20.271Z,1.97
2018-08-11T18:46:23.391Z,1.50
2018-08-11T18:48:26.507Z,1.43
2018-08-11T18:50:29.614Z,1.23
2018-08-11T18:52:32.815Z,0.90
2018-08-11T18:54:35.938Z,1.20
2018-08-11T18:56:39.066Z,0.83
2018-08-11T18:58:42.180Z,0.90
2018-08-11T19:00:45.988Z,1.67
2018-08-11T19:02:49.106Z,1.20
2018-08-11T19:04:52.240Z,1.37
2018-08-11T19:06:55.352Z,0.93
2018-08-11T19:08:58.635Z,1.27
2018-08-11T19:11:01.781Z,1.50
2018-08-11T19:13:04.921Z,1.23
2018-08-11T19:15:10.963Z,1.60
2018-08-11T19:17:14.101Z,2.10
2018-08-11T19:19:17.212Z,2.93
2018-08-11T19:21:20.326Z,1.77
2018-08-11T19:23:23.482Z,2.23
2018-08-11T19:25:26.628Z,1.80
2018-08-11T19:27:30.084Z,1.73
2018-08-11T19:29:32.963Z,1.63
2018-08-11T19:31:35.880Z,1.20
2018-08-11T19:33:38.775Z,1.43
2018-08-11T19:35:41.677Z,1.80
2018-08-11T19:37:44.588Z,1.23
2018-08-11T19:39:47.575Z,1.13
2018-08-11T19:41:50.551Z,1.20
2018-08-11T19:43:53.450Z,1.40
2018-08-11T19:45:56.343Z,1.10
2018-08-11T19:47:59.286Z,1.40
2018-08-11T19:50:02.167Z,1.17
2018-08-11T19:52:05.346Z,1.97
2018-08-11T19:54:08.447Z,1.30
2018-08-11T19:56:11.532Z,1.80
2018-08-11T19:58:14.623Z,1.20
2018-08-11T20:00:17.705Z,1.20
2018-08-11T20:02:20.807Z,1.47
2018-08-11T20:04:23.903Z,1.30
2018-08-11T20:06:27.019Z,1.30
2018-08-11T20:08:30.112Z,1.10
2018-08-11T20:10:33.209Z,1.10
2018-08-11T20:12:36.770Z,1.70
2018-08-11T20:14:39.801Z,2.70
2018-08-11T20:16:42.871Z,1.77
2018-08-11T20:18:45.971Z,1.97
2018-08-11T20:20:49.075Z,1.97
2018-08-11T20:22:52.158Z,1.60
2018-08-11T20:24:55.254Z,1.80
2018-08-11T20:26:58.356Z,1.87
2018-08-11T20:29:01.464Z,1.30
2018-08-11T20:31:04.564Z,1.17
2018-08-11T20:33:07.647Z,1.70
2018-08-11T20:35:10.735Z,1.03
2018-08-11T20:37:13.831Z,1.30
2018-08-11T20:39:16.932Z,1.70
2018-08-11T20:41:20.021Z,1.47
2018-08-11T20:43:23.121Z,2.10
2018-08-11T20:45:26.395Z,2.00
2018-08-11T20:47:29.467Z,2.23
2018-08-11T20:49:32.363Z,2.27
2018-08-11T20:51:35.366Z,2.37
2018-08-11T20:53:38.465Z,1.77
2018-08-11T20:55:41.701Z,1.73
2018-08-11T20:57:44.814Z,2.10
2018-08-11T20:59:47.896Z,2.57
2018-08-11T21:01:51.080Z,2.43
2018-08-11T21:03:54.130Z,2.20
2018-08-11T21:05:57.219Z,2.07
2018-08-11T21:08:00.320Z,2.87
2018-08-11T21:10:03.995Z,2.63
2018-08-11T21:12:07.183Z,3.17
2018-08-11T21:14:10.996Z,3.70
2018-08-11T21:16:14.094Z,3.57
2018-08-11T21:18:17.188Z,5.20
2018-08-11T21:20:20.287Z,4.33
2018-08-11T21:22:23.388Z,5.60
2018-08-11T21:24:26.482Z,3.60
2018-08-11T21:26:29.679Z,3.90
2018-08-11T21:28:32.818Z,3.00
2018-08-11T21:30:35.938Z,4.50
2018-08-11T21:32:39.162Z,3.67
2018-08-11T21:34:42.308Z,3.60
2018-08-11T21:36:45.399Z,3.90
2018-08-11T21:38:48.484Z,3.00
2018-08-11T21:40:51.600Z,4.33
2018-08-11T21:42:54.679Z,3.20
2018-08-11T21:44:57.768Z,2.53
2018-08-11T21:47:00.864Z,4.53
2018-08-11T21:49:03.954Z,2.83
2018-08-11T21:51:07.093Z,2.10
2018-08-11T21:53:10.159Z,2.67
2018-08-11T21:55:13.248Z,2.80
2018-08-11T21:57:16.390Z,2.00
2018-08-11T21:59:19.477Z,2.00
2018-08-11T22:01:22.576Z,1.83
2018-08-11T22:03:25.672Z,2.00
2018-08-11T22:05:28.934Z,1.73
2018-08-11T22:07:32.030Z,1.80
2018-08-11T22:09:35.121Z,2.03
2018-08-11T22:11:38.214Z,2.10
2018-08-11T22:13:41.296Z,2.60
2018-08-11T22:15:44.391Z,2.03
2018-08-11T22:17:48.104Z,2.10
2018-08-11T22:19:51.188Z,1.83
2018-08-11T22:21:54.388Z,3.00
2018-08-11T22:23:57.451Z,2.00
2018-08-11T22:26:00.551Z,2.03
2018-08-11T22:28:03.647Z,2.50
2018-08-11T22:30:07.583Z,1.87
2018-08-11T22:32:10.671Z,1.83
2018-08-11T22:34:13.810Z,1.70
2018-08-11T22:36:16.895Z,1.60
2018-08-11T22:38:19.981Z,1.77
2018-08-11T22:40:23.179Z,1.70
2018-08-11T22:42:26.340Z,1.67
2018-08-11T22:44:29.436Z,1.77
2018-08-11T22:46:32.570Z,2.17
2018-08-11T22:48:35.744Z,1.70
2018-08-11T22:50:38.868Z,2.10
2018-08-11T22:52:42.003Z,2.03
2018-08-11T22:54:45.111Z,3.07
2018-08-11T22:56:48.246Z,2.90
2018-08-11T22:58:51.364Z,1.50
2018-08-11T23:00:54.483Z,1.63
2018-08-11T23:02:57.616Z,2.17
2018-08-11T23:05:00.708Z,4.07
2018-08-11T23:07:03.842Z,1.80
2018-08-11T23:09:07.319Z,2.27
2018-08-11T23:11:10.428Z,2.20
2018-08-11T23:13:13.550Z,1.43
2018-08-11T23:15:18.088Z,1.90
2018-08-11T23:17:21.212Z,2.17
2018-08-11T23:19:24.331Z,2.03
2018-08-11T23:21:27.443Z,2.03
2018-08-11T23:23:30.551Z,1.77
2018-08-11T23:25:33.688Z,1.70
2018-08-11T23:27:37.140Z,1.73
2018-08-11T23:29:40.266Z,1.67
2018-08-11T23:31:43.375Z,1.33
2018-08-11T23:33:46.508Z,1.83
2018-08-11T23:35:49.620Z,1.53
2018-08-11T23:37:52.787Z,2.00
2018-08-11T23:39:55.856Z,1.50
2018-08-11T23:41:58.992Z,2.47
2018-08-11T23:44:02.164Z,2.20
2018-08-11T23:46:05.287Z,2.00
2018-08-11T23:48:08.399Z,1.53
2018-08-11T23:50:12.223Z,1.90
2018-08-11T23:52:15.338Z,2.40
2018-08-11T23:54:18.455Z,2.40
2018-08-11T23:56:21.559Z,2.17
2018-08-11T23:58:24.783Z,2.60
